Flight Track Log - Related Links

Times and Time Zones

All times are in EDT time to prevent confusion due to time zone crossing. See the AAR214 flight status page for this flight to view local times or setup timezone preferences in your user account.

Time Position Orientation Groundspeed Altitude Reporting Facility
EDT Latitude Longitude Course Direction KTS MPH feet Rate Location/Type
Fri 03:57:00 37.4834 127.3173 90° East  Level FlightAware Approximate
Fri 03:58:00 37.5026 127.4917 79° East  Level FlightAware Approximate
Fri 03:59:00 37.5194 127.6665 78° East  Level FlightAware Approximate
Fri 04:00:00 37.5483 127.8396 78° East  Level FlightAware Approximate
Fri 04:01:00 37.5759 128.0132 79° East  Level FlightAware Approximate
Fri 04:02:00 37.6036 128.1867 77° East  Level FlightAware Approximate
Fri 04:03:00 37.6333 128.3595 90° East  Level FlightAware Approximate
Fri 04:04:00 37.6604 128.5331 81° East  Level FlightAware Approximate
Fri 04:05:00 37.6889 128.7054 72° East  Level FlightAware Approximate
Fri 04:06:00 37.6449 128.8603 122° Southeast  Level FlightAware Approximate
Fri 04:07:00 37.5701 129.0101 122° Southeast  Level FlightAware Approximate
Fri 04:08:00 37.4953 129.1598 122° Southeast  Level FlightAware Approximate
Fri 04:09:00 37.4204 129.3092 122° Southeast  Level FlightAware Approximate
Fri 04:10:00 37.3465 129.4593 121° Southeast  Level FlightAware Approximate
Fri 04:11:00 37.2734 129.6098 121° Southeast  Level FlightAware Approximate
Fri 04:12:00 37.2000 129.7599 121° Southeast  Level FlightAware Approximate
Fri 04:13:00 37.1264 129.9099 122° Southeast  Level FlightAware Approximate
Fri 04:14:00 37.0527 130.0595 122° Southeast  Level FlightAware Approximate
Fri 04:15:00 36.9788 130.2088 122° Southeast  Level FlightAware Approximate
Fri 04:16:00 36.9047 130.3578 122° Southeast  Level FlightAware Approximate
Fri 04:17:00 36.8304 130.5065 122° Southeast  Level FlightAware Approximate
Fri 04:18:00 36.7559 130.6550 122° Southeast  Level FlightAware Approximate
Fri 04:19:00 36.6810 130.8029 122° Southeast  Level FlightAware Approximate
Fri 04:20:00 36.6059 130.9506 122° Southeast  Level FlightAware Approximate
Fri 04:21:00 36.5306 131.0980 122° Southeast  Level FlightAware Approximate
Fri 04:22:00 36.4551 131.2451 123° Southeast  Level FlightAware Approximate
Fri 04:23:00 36.3795 131.3919 123° Southeast  Level FlightAware Approximate
Fri 04:24:00 36.3622 131.5614 92° East  Level FlightAware Approximate
Fri 04:25:00 36.3566 131.7354 92° East  Level FlightAware Approximate
Fri 04:26:00 36.3507 131.9095 92° East  Level FlightAware Approximate
Fri 04:27:00 36.3446 132.0835 92° East  Level FlightAware Approximate
Fri 04:27:33 36.5050 131.1710 93° East 516 594 31,000  Level FlightAware ADS-B
Fri 04:28:00 36.3382 132.2574 93° East  Level FlightAware Approximate
Fri 04:28:23 36.4460 131.2880 122° Southeast 516 594 31,000  Level FlightAware ADS-B
Fri 04:30:00 36.5896 131.5064 51° Northeast  Level Estimated
Fri 04:30:28 36.3670 131.6410 51° Northeast 32,200  Level FlightAware ADS-B
Fri 04:30:53 36.3640 131.7250 93° East 519 597 32,600 738 Climbing FlightAware ADS-B
Fri 04:31:33 36.3610 131.8350 92° East 517 595 33,000 320 Climbing FlightAware ADS-B
Fri 04:32:08 36.3570 131.9460 93° East 514 592 33,000  Level FlightAware ADS-B
Fri 04:32:43 36.3530 132.0470 93° East 513 590 33,000  Level FlightAware ADS-B
Fri 04:33:28 36.3490 132.1780 92° East 512 589 33,000  Level FlightAware ADS-B
Fri 04:34:03 36.3450 132.2830 93° East 512 589 33,000  Level FlightAware ADS-B
Fri 04:34:38 36.3410 132.3780 93° East 511 588 33,000  Level FlightAware ADS-B
Fri 04:35:30 36.3380 132.5150 92° East 511 588 33,000  Level FlightAware ADS-B
Fri 04:35:59 36.3320 132.6170 94° East 445 512 33,000  Level FlightAware ADS-B
Fri 04:36:38 36.3280 132.7300 92° East 511 588 33,000  Level FlightAware ADS-B
Fri 04:37:13 36.3230 132.8390 93° East 511 588 33,000  Level FlightAware ADS-B
Fri 04:37:53 36.3180 132.9560 93° East 511 588 33,000  Level FlightAware ADS-B
Fri 04:38:28 36.3140 133.0560 93° East 510 587 33,000  Level FlightAware ADS-B
Fri 04:39:03 36.3100 133.1600 93° East 511 588 33,000  Level FlightAware ADS-B
Fri 04:39:38 36.3050 133.2570 94° East 510 587 33,000  Level FlightAware ADS-B
Fri 04:40:13 36.3000 133.3650 93° East 511 588 33,000  Level FlightAware ADS-B
Fri 04:40:48 36.2960 133.4670 93° East 511 588 33,000  Level FlightAware ADS-B
Fri 04:41:23 36.2920 133.5560 93° East 511 588 33,000  Level FlightAware ADS-B
Fri 04:41:59 36.2860 133.6690 94° East 510 587 33,000  Level FlightAware ADS-B
Fri 04:42:34 36.2810 133.7770 93° East 508 585 33,000  Level FlightAware ADS-B
Fri 04:43:09 36.2760 133.8790 93° East 509 586 33,000  Level FlightAware ADS-B
Fri 04:43:44 36.2710 133.9690 94° East 509 586 33,000  Level FlightAware ADS-B
Fri 04:44:19 36.2660 134.0790 93° East 509 586 33,000  Level FlightAware ADS-B
Fri 04:44:54 36.2600 134.1830 94° East 510 587 33,000  Level FlightAware ADS-B
Fri 04:45:34 36.2540 134.3010 94° East 510 587 33,000  Level FlightAware ADS-B
Fri 04:46:09 36.2490 134.3930 94° East 509 586 33,000  Level FlightAware ADS-B
Fri 04:46:44 36.2460 134.5020 92° East 509 586 33,000  Level FlightAware ADS-B
Fri 04:47:19 36.2520 134.6060 86° East 508 585 33,000  Level FlightAware ADS-B
Fri 04:47:54 36.2610 134.7060 84° East 508 585 33,000  Level FlightAware ADS-B
Fri 04:48:29 36.2690 134.8040 84° East 506 582 33,000  Level FlightAware ADS-B
Fri 04:49:05 36.2780 134.9080 84° East 506 582 33,000  Level FlightAware ADS-B
Fri 04:49:44 36.2880 135.0210 84° East 506 582 33,000  Level FlightAware ADS-B
Fri 04:50:14 36.2950 135.1070 84° East 505 581 33,000  Level FlightAware ADS-B
Fri 04:50:49 36.3040 135.2100 84° East 505 581 33,000  Level FlightAware ADS-B
Fri 04:51:24 36.3120 135.3110 84° East 504 580 33,000  Level FlightAware ADS-B
Fri 04:51:59 36.3200 135.4120 84° East 503 579 33,000  Level FlightAware ADS-B
Fri 04:52:34 36.3280 135.5080 84° East 503 579 33,000  Level FlightAware ADS-B
Fri 04:53:09 36.3360 135.6100 84° East 502 578 33,000  Level FlightAware ADS-B
Fri 04:53:49 36.3490 135.7260 82° East 502 578 33,000  Level FlightAware ADS-B
Fri 04:54:19 36.3580 135.8050 82° East 502 578 33,000  Level FlightAware ADS-B
Fri 04:54:54 36.3690 135.9110 83° East 502 578 33,000  Level FlightAware ADS-B
Fri 04:55:34 36.3810 136.0230 82° East 502 578 33,000  Level FlightAware ADS-B
Fri 04:56:05 36.3890 136.1070 83° East 502 578 33,000  Level FlightAware ADS-B
Fri 04:56:39 36.4000 136.2090 82° East 501 577 33,000  Level FlightAware ADS-B
Fri 04:57:21 36.4110 136.3290 83° East 501 577 33,000  Level FlightAware ADS-B
Fri 04:57:56 36.4210 136.4280 83° East 500 575 33,000  Level FlightAware ADS-B
Fri 04:58:34 36.4320 136.5340 83° East 499 574 33,000  Level FlightAware ADS-B
Fri 04:59:09 36.4400 136.6210 83° East 499 574 33,000  Level FlightAware ADS-B
Fri 04:59:43 36.4500 136.7230 83° East 499 574 33,000  Level FlightAware ADS-B
Fri 05:00:20 36.4610 136.8370 83° East 499 574 33,000  Level FlightAware ADS-B
Fri 05:00:50 36.4690 136.9200 83° East 498 573 33,000  Level FlightAware ADS-B
Fri 05:01:25 36.4790 137.0210 83° East 498 573 33,000  Level FlightAware ADS-B
Fri 05:02:05 36.4890 137.1320 84° East 498 573 33,000  Level FlightAware ADS-B
Fri 05:02:44 36.4990 137.2430 84° East 499 574 33,000  Level FlightAware ADS-B
Fri 05:03:19 36.5090 137.3460 83° East 498 573 33,000  Level FlightAware ADS-B
Fri 05:03:59 36.5190 137.4590 84° East 499 574 33,000  Level FlightAware ADS-B
Fri 05:04:34 36.5280 137.5610 84° East 499 574 33,000  Level FlightAware ADS-B
Fri 05:05:09 36.5370 137.6550 83° East 500 575 33,000  Level FlightAware ADS-B
Fri 05:05:49 36.5470 137.7740 84° East 500 575 33,000  Level FlightAware ADS-B
Fri 05:06:19 36.5540 137.8580 84° East 499 574 33,000  Level FlightAware ADS-B
Fri 05:06:59 36.5640 137.9710 84° East 499 574 33,000  Level FlightAware ADS-B
Fri 05:07:34 36.5720 138.0670 84° East 499 574 33,000  Level FlightAware ADS-B
Fri 05:08:04 36.5800 138.1540 83° East 499 574 33,000  Level FlightAware ADS-B
Fri 05:08:39 36.5880 138.2570 84° East 498 573 33,000  Level FlightAware ADS-B
Fri 05:09:19 36.5980 138.3700 84° East 498 573 33,000  Level FlightAware ADS-B
Fri 05:09:49 36.6050 138.4560 84° East 499 574 33,000  Level FlightAware ADS-B
Fri 05:10:24 36.6130 138.5530 84° East 499 574 33,000  Level FlightAware ADS-B
Fri 05:10:59 36.6210 138.6560 84° East 498 573 33,000  Level FlightAware ADS-B
Fri 05:11:36 36.6280 138.7410 84° East 498 573 33,000  Level FlightAware ADS-B
Fri 05:12:09 36.6360 138.8490 85° East 497 572 33,000  Level FlightAware ADS-B
Fri 05:12:44 36.6440 138.9530 84° East 498 573 33,000  Level FlightAware ADS-B
Fri 05:13:20 36.6520 139.0540 84° East 499 574 33,000  Level FlightAware ADS-B
Fri 05:13:55 36.6590 139.1460 85° East 499 574 33,000  Level FlightAware ADS-B
Fri 05:14:35 36.6680 139.2690 85° East 499 574 33,000  Level FlightAware ADS-B
Fri 05:15:06 36.6750 139.3620 85° East 500 575 33,000  Level FlightAware ADS-B
Fri 05:15:44 36.6830 139.4700 85° East 500 575 33,000  Level FlightAware ADS-B
Fri 05:16:15 36.6900 139.5550 84° East 501 577 33,000  Level FlightAware ADS-B
Fri 05:16:50 36.6970 139.6580 85° East 500 575 33,000  Level FlightAware ADS-B
Fri 05:17:29 36.7050 139.7710 85° East 500 575 33,000  Level FlightAware ADS-B
Fri 05:18:04 36.7120 139.8690 85° East 501 577 33,000  Level FlightAware ADS-B
Fri 05:18:37 36.7190 139.9660 85° East 500 575 33,000  Level FlightAware ADS-B
Fri 05:19:11 36.7250 140.0640 86° East 501 577 33,000  Level FlightAware ADS-B
Fri 05:19:47 36.7320 140.1680 85° East 500 575 33,000  Level FlightAware ADS-B
Fri 05:20:24 36.7390 140.2710 85° East 500 575 33,000  Level FlightAware ADS-B
Fri 05:20:57 36.7460 140.3670 85° East 500 575 33,000  Level FlightAware ADS-B
Fri 05:21:33 36.7540 140.4720 85° East 499 574 33,000  Level FlightAware ADS-B
Fri 05:22:09 36.7630 140.5720 84° East 500 575 33,000  Level FlightAware ADS-B
Fri 05:22:42 36.7720 140.6660 83° East 499 574 33,000  Level FlightAware ADS-B
Fri 05:23:15 36.7800 140.7610 84° East 502 578 33,000  Level FlightAware ADS-B
Fri 05:23:51 36.7880 140.8670 85° East 502 578 33,000  Level FlightAware ADS-B
Fri 05:24:25 36.7960 140.9640 84° East 502 578 33,000  Level FlightAware ADS-B
Fri 05:25:03 36.8050 141.0720 84° East 502 578 33,000  Level FlightAware ADS-B
Fri 05:25:37 36.8120 141.1670 85° East 502 578 33,000  Level FlightAware ADS-B
Fri 05:26:14 36.8210 141.2730 84° East 501 577 33,000  Level FlightAware ADS-B
Fri 05:26:46 36.8280 141.3670 85° East 500 575 33,000  Level FlightAware ADS-B
Fri 05:27:21 36.8360 141.4670 84° East 497 572 33,000  Level FlightAware ADS-B
Fri 05:27:56 36.8440 141.5660 84° East 496 571 33,000  Level FlightAware ADS-B
Fri 05:28:31 36.8510 141.6650 85° East 494 568 33,000  Level FlightAware ADS-B
Fri 05:29:06 36.8590 141.7660 84° East 494 568 33,000  Level FlightAware ADS-B
Fri 05:29:41 36.8660 141.8640 85° East 494 568 33,000  Level FlightAware ADS-B
Fri 05:30:16 36.8730 141.9640 85° East 493 567 33,000  Level FlightAware ADS-B
Fri 05:30:46 36.8790 142.0480 85° East 493 567 33,000  Level FlightAware ADS-B
Fri 05:31:21 36.8860 142.1480 85° East 493 567 33,000  Level FlightAware ADS-B
Fri 05:31:56 36.8940 142.2480 84° East 494 568 33,000  Level FlightAware ADS-B
Fri 05:32:37 36.9020 142.3600 85° East 494 568 33,000  Level FlightAware ADS-B
Fri 05:33:11 36.9090 142.4610 85° East 494 568 33,000  Level FlightAware ADS-B
Fri 05:33:46 36.9150 142.5570 86° East 496 571 33,000  Level FlightAware ADS-B
Fri 05:34:36 36.9230 142.6870 86° East 496 571 33,000  Level FlightAware ADS-B
Fri 05:35:11 36.9310 142.8010 85° East 496 571 33,000  Level FlightAware ADS-B
Fri 05:35:56 36.9400 142.9310 85° East 500 575 33,000  Level FlightAware ADS-B
Fri 05:36:37 36.9460 143.0390 86° East 501 577 33,000  Level FlightAware ADS-B
Fri 05:37:13 36.9510 143.1270 86° East 501 577 33,000  Level FlightAware ADS-B
Fri 05:37:51 36.9600 143.2520 85° East 562 647 33,000  Level FlightAware ADS-B
Fri 05:38:33 36.9680 143.3660 85° East 502 578 33,000  Level FlightAware ADS-B
Fri 05:39:16 36.9750 143.4990 86° East 503 579 33,000  Level FlightAware ADS-B
Fri 05:40:01 36.9820 143.6300 86° East 503 579 33,000  Level FlightAware ADS-B
Fri 05:40:40 36.9890 143.7260 85° East 503 579 33,000  Level FlightAware ADS-B
Fri 05:41:17 36.9950 143.8560 87° East 504 580 33,000  Level FlightAware ADS-B
Fri 05:41:58 37.0020 143.9710 86° East 504 580 33,000  Level FlightAware ADS-B
Fri 05:42:46 37.0180 144.1170 82° East 501 577 33,000  Level FlightAware ADS-B
Fri 05:43:21 37.0290 144.2100 82° East 500 575 33,000  Level FlightAware ADS-B
Fri 05:43:51 37.0400 144.2960 81° East 499 574 33,000  Level FlightAware ADS-B
Fri 05:44:31 37.0530 144.4060 82° East 499 574 33,000  Level FlightAware ADS-B
Fri 05:45:06 37.0660 144.5160 82° East 498 573 33,000  Level FlightAware ADS-B
Fri 05:45:59 37.0820 144.6550 82° East 498 573 33,000  Level FlightAware ADS-B
Fri 05:46:35 37.0920 144.7430 82° East 498 573 33,000  Level FlightAware ADS-B
Fri 05:47:26 37.1130 144.9170 81° East 501 577 33,000  Level FlightAware ADS-B
Fri 05:48:01 37.1250 145.0190 82° East 501 577 33,000  Level FlightAware ADS-B
Fri 05:48:42 37.1380 145.1330 82° East 503 579 33,000  Level FlightAware ADS-B
Fri 05:49:14 37.1480 145.2230 82° East 503 579 33,000  Level FlightAware ADS-B
Fri 05:49:52 37.1590 145.3160 82° East 503 579 33,000  Level FlightAware ADS-B
Fri 05:50:28 37.1690 145.4050 82° East 503 579 33,000  Level FlightAware ADS-B
Fri 05:51:05 37.1790 145.4960 82° East 503 579 33,000  Level FlightAware ADS-B
Fri 05:51:41 37.1890 145.5840 82° East 503 579 33,000  Level FlightAware ADS-B
Fri 05:52:17 37.1990 145.6730 82° East 503 579 33,000  Level FlightAware ADS-B
Fri 05:52:53 37.2090 145.7610 82° East 503 579 33,000  Level FlightAware ADS-B
Fri 05:53:29 37.2180 145.8500 83° East 503 579 33,000  Level FlightAware ADS-B
Fri 05:54:05 37.2280 145.9380 82° East 503 579 33,000  Level FlightAware ADS-B
Fri 05:54:41 37.2380 146.0270 82° East 503 579 33,000  Level FlightAware ADS-B
Fri 05:55:18 37.2480 146.1180 82° East 503 579 33,000  Level FlightAware ADS-B
Fri 05:55:54 37.2580 146.2070 82° East 503 579 33,000  Level FlightAware ADS-B
Fri 05:56:32 37.2690 146.3000 82° East 503 579 33,000  Level FlightAware ADS-B
Fri 05:57:08 37.2790 146.3890 82° East 503 579 33,000  Level FlightAware ADS-B
Fri 05:57:44 37.2890 146.4770 82° East 503 579 33,000  Level FlightAware ADS-B
Fri 05:58:20 37.2980 146.5660 83° East 503 579 33,000  Level FlightAware ADS-B
Fri 05:58:56 37.3080 146.6550 82° East 503 579 33,000 13 Level FlightAware ADS-B
Fri 06:01:00 37.4609 146.9650 58° Northeast  Level Estimated
Fri 06:02:00 37.5347 147.1154 58° Northeast  Level Estimated
Fri 06:03:00 37.6082 147.2661 58° Northeast  Level Estimated
Fri 06:04:00 37.6815 147.4172 58° Northeast  Level Estimated
Fri 06:05:00 37.7547 147.5685 59° Northeast  Level Estimated
Fri 06:06:00 37.8276 147.7201 59° Northeast  Level Estimated
Fri 06:07:00 37.9004 147.8721 59° Northeast  Level Estimated
Fri 06:08:00 37.9729 148.0243 59° Northeast  Level Estimated
Fri 06:09:00 38.0453 148.1768 59° Northeast  Level Estimated
Fri 06:10:00 38.1175 148.3296 59° Northeast  Level Estimated
Fri 06:11:00 38.1894 148.4828 59° Northeast  Level Estimated
Fri 06:12:00 38.2612 148.6362 59° Northeast  Level Estimated
Fri 06:13:00 38.3328 148.7899 59° Northeast  Level Estimated
Fri 06:14:00 38.4041 148.9440 59° Northeast  Level Estimated
Fri 06:15:00 38.4753 149.0983 59° Northeast  Level Estimated
Fri 06:16:00 38.5462 149.2530 60° Northeast  Level Estimated
Fri 06:17:00 38.6170 149.4079 60° Northeast  Level Estimated
Fri 06:18:00 38.6876 149.5632 60° Northeast  Level Estimated
Fri 06:19:00 38.7579 149.7188 60° Northeast  Level Estimated
Fri 06:20:00 38.8280 149.8747 60° Northeast  Level Estimated
Fri 06:21:00 38.8980 150.0308 60° Northeast  Level Estimated
Fri 06:22:00 38.9677 150.1873 60° Northeast  Level Estimated
Fri 06:23:00 39.0372 150.3441 60° Northeast  Level Estimated
Fri 06:24:00 39.1065 150.5012 60° Northeast  Level Estimated
Fri 06:25:00 39.1756 150.6586 60° Northeast  Level Estimated
Fri 06:26:00 39.2445 150.8164 61° Northeast  Level Estimated
Fri 06:27:00 39.3131 150.9744 61° Northeast  Level Estimated
Fri 06:28:00 39.3816 151.1327 61° Northeast  Level Estimated
Fri 06:29:00 39.4498 151.2914 61° Northeast  Level Estimated
Fri 06:30:00 39.5179 151.4503 61° Northeast  Level Estimated
Fri 06:31:00 39.5857 151.6096 61° Northeast  Level Estimated
Fri 06:32:00 39.6533 151.7692 61° Northeast  Level Estimated
Fri 06:33:00 39.7206 151.9291 61° Northeast  Level Estimated
Fri 06:34:00 39.7878 152.0893 61° Northeast  Level Estimated
Fri 06:35:00 39.8547 152.2498 61° Northeast  Level Estimated
Fri 06:36:00 39.9214 152.4107 62° Northeast  Level Estimated
Fri 06:37:00 40.0111 152.6284 62° Northeast  Level Estimated
Fri 06:38:00 40.1004 152.8466 62° Northeast  Level Estimated
Fri 06:39:00 40.1893 153.0654 62° Northeast  Level Estimated
Fri 06:40:00 40.2778 153.2848 62° Northeast  Level Estimated
Fri 06:41:00 40.3659 153.5047 62° Northeast  Level Estimated
Fri 06:42:00 40.4535 153.7253 62° Northeast  Level Estimated
Fri 06:43:00 40.5408 153.9464 63° Northeast  Level Estimated
Fri 06:44:00 40.6276 154.1680 63° Northeast  Level Estimated
Fri 06:45:00 40.7140 154.3903 63° Northeast  Level Estimated
Fri 06:46:00 40.7999 154.6131 63° Northeast  Level Estimated
Fri 06:47:00 40.8854 154.8365 63° Northeast  Level Estimated
Fri 06:48:00 40.9705 155.0605 63° Northeast  Level Estimated
Fri 06:49:00 41.0552 155.2850 63° Northeast  Level Estimated
Fri 06:50:00 41.1394 155.5102 64° Northeast  Level Estimated
Fri 06:51:00 41.2232 155.7359 64° Northeast  Level Estimated
Fri 06:52:00 41.3065 155.9622 64° Northeast  Level Estimated
Fri 06:53:00 41.3894 156.1891 64° Northeast  Level Estimated
Fri 06:54:00 41.4719 156.4165 64° Northeast  Level Estimated
Fri 06:55:00 41.5538 156.6445 64° Northeast  Level Estimated
Fri 06:56:00 41.6354 156.8731 64° Northeast  Level Estimated
Fri 06:57:00 41.7165 157.1023 65° Northeast  Level Estimated
Fri 06:58:00 41.7971 157.3321 65° Northeast  Level Estimated
Fri 06:59:00 41.8773 157.5624 65° Northeast  Level Estimated
Fri 07:00:00 41.9570 157.7933 65° Northeast  Level Estimated
Fri 07:01:00 42.0363 158.0248 65° Northeast  Level Estimated
Fri 07:02:00 42.1151 158.2569 65° Northeast  Level Estimated
Fri 07:03:00 42.1934 158.4895 65° Northeast  Level Estimated
Fri 07:04:00 42.2712 158.7227 66° East  Level Estimated
Fri 07:05:00 42.3486 158.9565 66° East  Level Estimated
Fri 07:06:00 42.4255 159.1909 66° East  Level Estimated
Fri 07:07:00 42.5019 159.4258 66° East  Level Estimated
Fri 07:08:00 42.5779 159.6613 66° East  Level Estimated
Fri 07:09:00 42.6533 159.8974 66° East  Level Estimated
Fri 07:10:00 42.7283 160.1341 67° East  Level Estimated
Fri 07:11:00 42.8028 160.3713 67° East  Level Estimated
Fri 07:12:00 42.8768 160.6091 67° East  Level Estimated
Fri 07:13:00 42.9503 160.8475 67° East  Level Estimated
Fri 07:14:00 43.0233 161.0864 67° East  Level Estimated
Fri 07:15:00 43.0958 161.3259 67° East  Level Estimated
Fri 07:16:00 43.1678 161.5660 68° East  Level Estimated
Fri 07:17:00 43.2393 161.8066 68° East  Level Estimated
Fri 07:18:00 43.3102 162.0478 68° East  Level Estimated
Fri 07:19:00 43.3807 162.2895 68° East  Level Estimated
Fri 07:20:00 43.4507 162.5319 68° East  Level Estimated
Fri 07:21:00 43.5202 162.7747 68° East  Level Estimated
Fri 07:22:00 43.5891 163.0182 69° East  Level Estimated
Fri 07:23:00 43.6575 163.2622 69° East  Level Estimated
Fri 07:24:00 43.7254 163.5067 69° East  Level Estimated
Fri 07:25:00 43.7928 163.7518 69° East  Level Estimated
Fri 07:26:00 43.8597 163.9975 69° East  Level Estimated
Fri 07:27:00 43.9260 164.2437 69° East  Level Estimated
Fri 07:28:00 43.9918 164.4904 70° East  Level Estimated
Fri 07:29:00 44.0571 164.7377 70° East  Level Estimated
Fri 07:30:00 44.1218 164.9855 70° East  Level Estimated
Fri 07:31:00 44.1860 165.2339 70° East  Level Estimated
Fri 07:32:00 44.2497 165.4828 70° East  Level Estimated
Fri 07:33:00 44.3128 165.7323 70° East  Level Estimated
Fri 07:34:00 44.3754 165.9823 71° East  Level Estimated
Fri 07:35:00 44.4374 166.2328 71° East  Level Estimated
Fri 07:36:00 44.4989 166.4839 71° East  Level Estimated
Fri 07:37:00 44.5598 166.7354 71° East  Level Estimated
Fri 07:38:00 44.6202 166.9875 71° East  Level Estimated
Fri 07:39:00 44.6800 167.2402 72° East  Level Estimated
Fri 07:40:00 44.7393 167.4933 72° East  Level Estimated
Fri 07:41:00 44.7980 167.7470 72° East  Level Estimated
Fri 07:42:00 44.8561 168.0011 72° East  Level Estimated
Fri 07:43:00 44.9137 168.2558 72° East  Level Estimated
Fri 07:44:00 44.9707 168.5110 72° East  Level Estimated
Fri 07:45:00 45.0271 168.7667 73° East  Level Estimated
Fri 07:46:00 45.0830 169.0229 73° East  Level Estimated
Fri 07:47:00 45.1383 169.2796 73° East  Level Estimated
Fri 07:48:00 45.1930 169.5368 73° East  Level Estimated
Fri 07:49:00 45.2471 169.7945 73° East  Level Estimated
Fri 07:50:00 45.3007 170.0527 73° East  Level Estimated
Fri 07:51:00 45.3537 170.3114 74° East  Level Estimated
Fri 07:52:00 45.4061 170.5705 74° East  Level Estimated
Fri 07:53:00 45.4579 170.8302 74° East  Level Estimated
Fri 07:54:00 45.5091 171.0903 74° East  Level Estimated
Fri 07:55:00 45.5597 171.3508 74° East  Level Estimated
Fri 07:56:00 45.6097 171.6119 75° East  Level Estimated
Fri 07:57:00 45.6591 171.8734 75° East  Level Estimated
Fri 07:58:00 45.7080 172.1353 75° East  Level Estimated
Fri 07:59:00 45.7562 172.3978 75° East  Level Estimated
Fri 08:00:00 45.8038 172.6606 75° East  Level Estimated
Fri 08:01:00 45.8509 172.9239 76° East  Level Estimated
Fri 08:02:00 45.8973 173.1877 76° East  Level Estimated
Fri 08:03:00 45.9431 173.4519 76° East  Level Estimated
Fri 08:04:00 45.9883 173.7165 76° East  Level Estimated
Fri 08:05:00 46.0329 173.9816 76° East  Level Estimated
Fri 08:06:00 46.0769 174.2471 76° East  Level Estimated
Fri 08:07:00 46.1202 174.5130 77° East  Level Estimated
Fri 08:08:00 46.1630 174.7793 77° East  Level Estimated
Fri 08:09:00 46.2051 175.0460 77° East  Level Estimated
Fri 08:10:00 46.2466 175.3132 77° East  Level Estimated
Fri 08:11:00 46.2875 175.5807 77° East  Level Estimated
Fri 08:12:00 46.3278 175.8486 78° East  Level Estimated
Fri 08:13:00 46.3674 176.1170 78° East  Level Estimated
Fri 08:14:00 46.4064 176.3857 78° East  Level Estimated
Fri 08:15:00 46.4448 176.6548 78° East  Level Estimated
Fri 08:16:00 46.4825 176.9243 78° East  Level Estimated
Fri 08:17:00 46.5196 177.1941 79° East  Level Estimated
Fri 08:18:00 46.5561 177.4643 79° East  Level Estimated
Fri 08:19:00 46.5919 177.7349 79° East  Level Estimated
Fri 08:20:00 46.6271 178.0058 79° East  Level Estimated
Fri 08:21:00 46.6617 178.2771 79° East  Level Estimated
Fri 08:22:00 46.6956 178.5487 80° East  Level Estimated
Fri 08:23:00 46.7288 178.8206 80° East  Level Estimated
Fri 08:24:00 46.7615 179.0929 80° East  Level Estimated
Fri 08:25:00 46.7934 179.3656 80° East  Level Estimated
Fri 08:26:00 46.8248 179.6385 80° East  Level Estimated
Fri 08:27:00 46.8554 179.9117 81° East  Level Estimated
Fri 08:28:00 46.8855 -179.8147 81° East  Level Estimated
Fri 08:29:00 46.9149 -179.5408 81° East  Level Estimated
Fri 08:30:00 46.9436 -179.2667 81° East  Level Estimated
Fri 08:31:00 46.9716 -178.9922 81° East  Level Estimated
Fri 08:32:00 46.9991 -178.7175 82° East  Level Estimated
Fri 08:33:00 47.0258 -178.4425 82° East  Level Estimated
Fri 08:34:00 47.0519 -178.1672 82° East  Level Estimated
Fri 08:35:00 47.0773 -177.8916 82° East  Level Estimated
Fri 08:36:00 47.1021 -177.6158 82° East  Level Estimated
Fri 08:36:13 47.9667 174.2333 73° East 566 651 35,000  Level Oakland Oceanic (ODAPS)
Fri 08:37:00 47.1262 -177.3398 83° East  Level Estimated
Fri 08:38:00 47.1497 -177.0634 83° East  Level Estimated
Fri 08:39:00 47.1724 -176.7869 83° East  Level Estimated
Fri 08:40:00 47.1946 -176.5101 83° East  Level Estimated
Fri 08:41:00 47.2160 -176.2331 83° East  Level Estimated
Fri 08:42:00 48.2408 175.5955 74° East 566 651 35,000  Level FlightAware Transoceanic
Fri 08:43:00 48.2849 175.8239 74° East 566 651 35,000  Level FlightAware Transoceanic
Fri 08:44:00 48.3285 176.0528 74° East 566 651 35,000  Level FlightAware Transoceanic
Fri 08:45:00 48.3717 176.2820 74° East 566 651 35,000  Level FlightAware Transoceanic
Fri 08:46:00 48.4145 176.5116 74° East 566 651 35,000  Level FlightAware Transoceanic
Fri 08:47:00 48.4568 176.7416 75° East 566 651 35,000  Level FlightAware Transoceanic
Fri 08:48:00 48.4986 176.9719 75° East 566 651 35,000  Level FlightAware Transoceanic
Fri 08:49:00 48.5400 177.2027 75° East 566 651 35,000  Level FlightAware Transoceanic
Fri 08:50:00 48.5809 177.4338 75° East 566 651 35,000  Level FlightAware Transoceanic
Fri 08:51:00 48.6213 177.6653 75° East 566 651 35,000  Level FlightAware Transoceanic
Fri 08:51:37 48.5833 177.3833 75° East 567 652 35,000  Level Oakland Oceanic (ODAPS)
Fri 08:52:00 48.6613 177.8972 75° East 566 651 35,000  Level FlightAware Transoceanic
Fri 08:53:00 48.7008 178.1294 76° East 566 651 35,000  Level FlightAware Transoceanic
Fri 08:54:00 48.7399 178.3620 76° East 566 651 35,000  Level FlightAware Transoceanic
Fri 08:55:00 48.7785 178.5949 76° East 566 651 35,000  Level FlightAware Transoceanic
Fri 08:56:00 48.8166 178.8282 76° East 566 651 35,000  Level FlightAware Transoceanic
Fri 08:57:00 48.8554 179.0435 77° East 567 652 35,000  Level FlightAware Transoceanic
Fri 08:58:00 48.8923 179.2821 77° East 567 652 35,000  Level FlightAware Transoceanic
Fri 08:59:00 48.9287 179.5211 77° East 567 652 35,000  Level FlightAware Transoceanic
Fri 09:00:00 48.9646 179.7603 77° East 567 652 35,000  Level FlightAware Transoceanic
Fri 09:01:00 49.0000 -180.0000 86° East 567 652 35,000  Level FlightAware Transoceanic
Fri 09:01:54 49.0000 180.0000 86° East 557 641 35,000  Level Oakland Oceanic (ODAPS)
Fri 09:02:00 49.0098 -179.7681 86° East 567 652 35,000  Level FlightAware Transoceanic
Fri 09:03:00 49.0192 -179.5361 87° East 567 652 35,000  Level FlightAware Transoceanic
Fri 09:03:58 49.0167 -179.4833 87° East 557 641 35,000  Level Oakland Oceanic (ODAPS)
Fri 09:04:00 49.0280 -179.3039 87° East 567 652 35,000  Level FlightAware Transoceanic
Fri 09:05:00 49.0365 -179.0718 87° East 567 652 35,000  Level FlightAware Transoceanic
Fri 09:06:00 49.0444 -178.8395 87° East 567 652 35,000  Level FlightAware Transoceanic
Fri 09:07:00 49.0519 -178.6072 87° East 567 652 35,000  Level FlightAware Transoceanic
Fri 09:08:00 49.0529 -178.5740 87° East 557 641 35,000  Level FlightAware Transoceanic
Fri 09:09:00 49.0600 -178.3360 87° East 557 641 35,000  Level FlightAware Transoceanic
Fri 09:10:00 49.0637 -178.0626 88° East 557 641 35,000  Level FlightAware Transoceanic
Fri 09:11:00 49.0699 -177.8256 88° East 557 641 35,000  Level FlightAware Transoceanic
Fri 09:12:00 49.0755 -177.5885 88° East 557 641 35,000  Level FlightAware Transoceanic
Fri 09:13:00 49.0807 -177.3514 88° East 557 641 35,000  Level FlightAware Transoceanic
Fri 09:14:00 49.0854 -177.1142 88° East 557 641 35,000  Level FlightAware Transoceanic
Fri 09:15:00 49.0896 -176.8770 89° East 557 641 35,000  Level FlightAware Transoceanic
Fri 09:16:00 49.0933 -176.6398 89° East 557 641 35,000  Level FlightAware Transoceanic
Fri 09:17:00 49.0966 -176.4025 89° East 557 641 35,000  Level FlightAware Transoceanic
Fri 09:17:48 49.1000 -176.2500 89° East 555 639 35,000  Level Oakland Oceanic (ODAPS)
Fri 09:18:00 49.0993 -176.1651 89° East 557 641 35,000  Level FlightAware Transoceanic
Fri 09:19:00 49.1016 -175.9278 89° East 557 641 35,000  Level FlightAware Transoceanic
Fri 09:20:00 49.1033 -175.6904 89° East 557 641 35,000  Level FlightAware Transoceanic
Fri 09:21:00 49.1046 -175.4530 90° East 557 641 35,000  Level FlightAware Transoceanic
Fri 09:22:00 49.1054 -175.2157 90° East 557 641 35,000  Level FlightAware Transoceanic
Fri 09:23:00 49.1057 -174.9783 90° East 557 641 35,000  Level FlightAware Transoceanic
Fri 09:24:00 49.1069 -174.8061 90° East 555 639 35,000  Level FlightAware Transoceanic
Fri 09:25:00 49.1063 -174.5655 90° East 555 639 35,000  Level FlightAware Transoceanic
Fri 09:26:00 49.1052 -174.3248 90° East 555 639 35,000  Level FlightAware Transoceanic
Fri 09:27:00 49.1036 -174.0842 91° East 555 639 35,000  Level FlightAware Transoceanic
Fri 09:28:00 49.1015 -173.8436 91° East 555 639 35,000  Level FlightAware Transoceanic
Fri 09:29:00 49.0989 -173.6030 91° East 555 639 35,000  Level FlightAware Transoceanic
Fri 09:30:00 49.0958 -173.3624 91° East 555 639 35,000  Level FlightAware Transoceanic
Fri 09:31:00 49.0922 -173.1219 91° East 555 639 35,000  Level FlightAware Transoceanic
Fri 09:31:43 49.0833 -172.9833 91° East 559 643 35,000  Level Oakland Oceanic (ODAPS)
Fri 09:32:00 49.0881 -172.8813 92° East 555 639 35,000  Level FlightAware Transoceanic
Fri 09:33:00 49.0835 -172.6409 92° East 555 639 35,000  Level FlightAware Transoceanic
Fri 09:34:00 49.0784 -172.4005 92° East 555 639 35,000  Level FlightAware Transoceanic
Fri 09:35:00 49.0728 -172.1601 92° East 555 639 35,000  Level FlightAware Transoceanic
Fri 09:36:00 49.0667 -171.9198 92° East 555 639 35,000  Level FlightAware Transoceanic
Fri 09:37:00 49.0601 -171.6796 92° East 555 639 35,000  Level FlightAware Transoceanic
Fri 09:38:00 49.0513 -171.4904 92° East 559 643 35,000  Level FlightAware Transoceanic
Fri 09:39:00 49.0441 -171.2418 93° East 559 643 35,000  Level FlightAware Transoceanic
Fri 09:40:00 49.0363 -170.9933 93° East 559 643 35,000  Level FlightAware Transoceanic
Fri 09:41:00 49.0280 -170.7448 93° East 559 643 35,000  Level FlightAware Transoceanic
Fri 09:42:00 49.0192 -170.4965 93° East 559 643 35,000  Level FlightAware Transoceanic
Fri 09:43:00 49.0099 -170.2482 93° East 559 643 35,000  Level FlightAware Transoceanic
Fri 09:44:00 49.0000 -170.0000 86° East 559 643 35,000  Level FlightAware Transoceanic
Fri 09:44:29 49.0000 -170.0000 86° East 549 632 35,000  Level Oakland Oceanic (ODAPS)
Fri 09:45:00 49.0096 -169.7733 86° East 559 643 35,000  Level FlightAware Transoceanic
Fri 09:45:35 49.0167 -169.7500 86° East 548 631 35,000  Level Oakland Oceanic (ODAPS)
Fri 09:46:00 49.0187 -169.5466 87° East 559 643 35,000  Level FlightAware Transoceanic
Fri 09:47:00 49.0275 -169.3198 87° East 559 643 35,000  Level FlightAware Transoceanic
Fri 09:48:00 49.0357 -169.0929 87° East 559 643 35,000  Level FlightAware Transoceanic
Fri 09:49:00 49.0435 -168.8659 87° East 559 643 35,000  Level FlightAware Transoceanic
Fri 09:50:00 49.0509 -168.6389 87° East 549 632 35,000  Level FlightAware Transoceanic
Fri 09:51:00 49.0637 -168.3915 87° East 548 631 35,000  Level FlightAware Transoceanic
Fri 09:52:00 49.0700 -168.1648 88° East 548 631 35,000  Level FlightAware Transoceanic
Fri 09:53:00 49.0758 -167.9381 88° East 548 631 35,000  Level FlightAware Transoceanic
Fri 09:54:00 49.0812 -167.7113 88° East 548 631 35,000  Level FlightAware Transoceanic
Fri 09:55:00 49.0862 -167.4845 88° East 548 631 35,000  Level FlightAware Transoceanic
Fri 09:56:00 49.0906 -167.2577 88° East 548 631 35,000  Level FlightAware Transoceanic
Fri 09:57:00 49.0947 -167.0308 89° East 548 631 35,000  Level FlightAware Transoceanic
Fri 09:58:00 49.0983 -166.8039 89° East 548 631 35,000  Level FlightAware Transoceanic
Fri 09:59:00 49.1015 -166.5769 89° East 548 631 35,000  Level FlightAware Transoceanic
Fri 09:59:27 49.1000 -166.5333 89° East 551 634 35,000  Level Oakland Oceanic (ODAPS)
Fri 10:00:00 49.1042 -166.3499 89° East 548 631 35,000  Level FlightAware Transoceanic
Fri 10:01:00 49.1065 -166.1229 89° East 548 631 35,000  Level FlightAware Transoceanic
Fri 10:02:00 49.1084 -165.8959 89° East 548 631 35,000  Level FlightAware Transoceanic
Fri 10:03:00 49.1097 -165.6689 90° East 548 631 35,000  Level FlightAware Transoceanic
Fri 10:04:00 49.1107 -165.4418 90° East 548 631 35,000  Level FlightAware Transoceanic
Fri 10:05:00 49.1096 -165.1319 90° East 551 634 35,000  Level FlightAware Transoceanic
Fri 10:06:00 49.1096 -164.8983 90° East 551 634 35,000  Level FlightAware Transoceanic
Fri 10:07:00 49.1091 -164.6647 90° East 551 634 35,000  Level FlightAware Transoceanic
Fri 10:08:00 49.1081 -164.4311 90° East 551 634 35,000  Level FlightAware Transoceanic
Fri 10:09:00 49.1067 -164.1975 91° East 551 634 35,000  Level FlightAware Transoceanic
Fri 10:10:00 49.1047 -163.9639 91° East 551 634 35,000  Level FlightAware Transoceanic
Fri 10:11:00 49.1023 -163.7304 91° East 551 634 35,000  Level FlightAware Transoceanic
Fri 10:12:00 49.0995 -163.4969 91° East 551 634 35,000  Level FlightAware Transoceanic
Fri 10:13:00 49.0961 -163.2634 91° East 551 634 35,000  Level FlightAware Transoceanic
Fri 10:13:20 49.1000 -163.3167 91° East 551 634 35,000  Level Oakland Oceanic (ODAPS)
Fri 10:14:00 49.0923 -163.0299 92° East 551 634 35,000  Level FlightAware Transoceanic
Fri 10:15:00 49.0880 -162.7965 92° East 551 634 35,000  Level FlightAware Transoceanic
Fri 10:16:00 49.0833 -162.5631 92° East 551 634 35,000  Level FlightAware Transoceanic
Fri 10:17:00 49.0780 -162.3298 92° East 551 634 35,000  Level FlightAware Transoceanic
Fri 10:18:00 49.0724 -162.0965 92° East 551 634 35,000  Level FlightAware Transoceanic
Fri 10:19:00 49.0688 -161.8936 92° East 551 634 35,000  Level FlightAware Transoceanic
Fri 10:20:00 49.0619 -161.6567 93° East 551 634 35,000  Level FlightAware Transoceanic
Fri 10:21:00 49.0545 -161.4198 93° East 551 634 35,000  Level FlightAware Transoceanic
Fri 10:22:00 49.0466 -161.1829 93° East 551 634 35,000  Level FlightAware Transoceanic
Fri 10:23:00 49.0383 -160.9462 93° East 551 634 35,000  Level FlightAware Transoceanic
Fri 10:24:00 49.0294 -160.7095 93° East 551 634 35,000  Level FlightAware Transoceanic
Fri 10:25:00 49.0201 -160.4729 94° East 551 634 35,000  Level FlightAware Transoceanic
Fri 10:26:00 49.0103 -160.2364 94° East 551 634 35,000  Level FlightAware Transoceanic
Fri 10:27:00 49.0000 -160.0000 95° East 551 634 35,000 845 Level FlightAware Transoceanic
Fri 10:27:11 49.0000 -160.1333 90° East 540 621 36,000 1,304 Climbing Oakland Oceanic (ODAPS)
Fri 10:27:46 49.0000 -160.0000 95° East 527 606 36,000 -1,224 Level Oakland Oceanic (ODAPS)
Fri 10:28:00 48.9881 -159.7882 95° East 551 634 35,000 -811 Descending FlightAware Transoceanic
Fri 10:29:00 48.9758 -159.5764 95° East 551 634 35,000  Level FlightAware Transoceanic
Fri 10:30:00 48.9632 -159.3648 95° East 551 634 35,000  Level FlightAware Transoceanic
Fri 10:31:00 48.9501 -159.1533 95° East 551 634 35,000  Level FlightAware Transoceanic
Fri 10:32:00 48.9366 -158.9419 96° East 551 634 35,000 500 Level FlightAware Transoceanic
Fri 10:33:00 48.9352 -158.9194 96° East 540 621 36,000 500 Climbing FlightAware Transoceanic
Fri 10:34:00 48.9192 -158.6755 96° East 527 606 36,000  Level FlightAware Transoceanic
Fri 10:35:00 48.9042 -158.4552 96° East 527 606 36,000  Level FlightAware Transoceanic
Fri 10:36:00 48.8888 -158.2350 96° East 527 606 36,000  Level FlightAware Transoceanic
Fri 10:37:00 48.8731 -158.0149 96° East 527 606 36,000  Level FlightAware Transoceanic
Fri 10:38:00 48.8568 -157.7950 96° East 527 606 36,000  Level FlightAware Transoceanic
Fri 10:38:43 48.8333 -157.5667 97° East 506 582 36,000  Level Oakland Oceanic (ODAPS)
Fri 10:39:00 48.8402 -157.5752 97° East 527 606 36,000  Level FlightAware Transoceanic
Fri 10:40:00 48.8232 -157.3556 97° East 527 606 36,000  Level FlightAware Transoceanic
Fri 10:40:09 48.8167 -157.2667 97° East 505 581 36,000  Level Oakland Oceanic (ODAPS)
Fri 10:41:00 48.8057 -157.1362 97° East 527 606 36,000  Level FlightAware Transoceanic
Fri 10:41:03 48.8000 -157.0833 97° East 504 580 36,000  Level Oakland Oceanic (ODAPS)
Fri 10:42:00 48.7879 -156.9169 97° East 527 606 36,000  Level FlightAware Transoceanic
Fri 10:43:00 48.7696 -156.6977 97° East 527 606 36,000  Level FlightAware Transoceanic
Fri 10:44:00 48.7509 -156.4787 97° East 527 606 36,000  Level FlightAware Transoceanic
Fri 10:45:00 48.7291 -156.2894 98° East 506 582 36,000  Level FlightAware Transoceanic
Fri 10:46:00 48.7094 -156.0053 98° East 505 581 36,000  Level FlightAware Transoceanic
Fri 10:47:00 48.6906 -155.8180 98° East 504 580 36,000  Level FlightAware Transoceanic
Fri 10:48:00 48.6711 -155.6077 98° East 504 580 36,000  Level FlightAware Transoceanic
Fri 10:49:00 48.6511 -155.3975 98° East 504 580 36,000  Level FlightAware Transoceanic
Fri 10:50:00 48.6308 -155.1875 98° East 504 580 36,000  Level FlightAware Transoceanic
Fri 10:51:00 48.6100 -154.9776 99° East 504 580 36,000  Level FlightAware Transoceanic
Fri 10:52:00 48.5889 -154.7680 99° East 504 580 36,000  Level FlightAware Transoceanic
Fri 10:53:00 48.5675 -154.5585 99° East 504 580 36,000  Level FlightAware Transoceanic
Fri 10:54:00 48.5456 -154.3492 99° East 504 580 36,000  Level FlightAware Transoceanic
Fri 10:54:55 48.5333 -154.2000 99° East 497 572 36,000  Level Oakland Oceanic (ODAPS)
Fri 10:55:00 48.5234 -154.1400 99° East 504 580 36,000  Level FlightAware Transoceanic
Fri 10:56:00 48.5007 -153.9311 99° East 504 580 36,000  Level FlightAware Transoceanic
Fri 10:57:00 48.4777 -153.7223 100° East 504 580 36,000  Level FlightAware Transoceanic
Fri 10:58:00 48.4544 -153.5138 100° East 504 580 36,000  Level FlightAware Transoceanic
Fri 10:59:00 48.4306 -153.3054 100° East 504 580 36,000  Level FlightAware Transoceanic
Fri 11:00:00 48.4065 -153.0972 100° East 504 580 36,000  Level FlightAware Transoceanic
Fri 11:01:00 48.3894 -152.9309 100° East 497 572 36,000  Level FlightAware Transoceanic
Fri 11:02:00 48.3641 -152.7202 100° East 497 572 36,000  Level FlightAware Transoceanic
Fri 11:03:00 48.3384 -152.5096 100° East 497 572 36,000  Level FlightAware Transoceanic
Fri 11:04:00 48.3123 -152.2992 101° East 497 572 36,000  Level FlightAware Transoceanic
Fri 11:05:00 48.2858 -152.0890 101° East 497 572 36,000  Level FlightAware Transoceanic
Fri 11:06:00 48.2589 -151.8791 101° East 497 572 36,000  Level FlightAware Transoceanic
Fri 11:07:00 48.2317 -151.6694 101° East 497 572 36,000  Level FlightAware Transoceanic
Fri 11:08:00 48.2040 -151.4599 101° East 497 572 36,000  Level FlightAware Transoceanic
Fri 11:08:48 48.2000 -151.4000 102° East 494 568 36,000  Level Oakland Oceanic (ODAPS)
Fri 11:09:00 48.1760 -151.2506 101° East 497 572 36,000  Level FlightAware Transoceanic
Fri 11:10:00 48.1476 -151.0416 102° East 497 572 36,000  Level FlightAware Transoceanic
Fri 11:11:00 48.1189 -150.8328 102° East 497 572 36,000  Level FlightAware Transoceanic
Fri 11:12:00 48.0897 -150.6243 102° East 497 572 36,000  Level FlightAware Transoceanic
Fri 11:12:08 48.1167 -150.7667 103° East 495 570 36,000  Level Oakland Oceanic (ODAPS)
Fri 11:13:00 48.0602 -150.4159 102° East 497 572 36,000  Level FlightAware Transoceanic
Fri 11:14:00 48.0303 -150.2078 102° East 497 572 36,000  Level FlightAware Transoceanic
Fri 11:15:00 48.0296 -150.1993 102° East 494 568 36,000  Level FlightAware Transoceanic
Fri 11:15:55 48.0000 -150.0000 110° East 484 557 36,000  Level Oakland Oceanic (ODAPS)
Fri 11:16:00 48.0000 -150.0000 110° East 494 568 36,000  Level FlightAware Transoceanic
Fri 11:17:00 47.9551 -149.8152 110° East 494 568 36,000  Level FlightAware Transoceanic
Fri 11:18:00 47.9100 -149.6307 110° East 495 570 36,000  Level FlightAware Transoceanic
Fri 11:19:00 47.8645 -149.4465 110° East 495 570 36,000  Level FlightAware Transoceanic
Fri 11:20:00 47.8188 -149.2626 110° East 495 570 36,000  Level FlightAware Transoceanic
Fri 11:21:00 47.7728 -149.0791 111° Southeast 495 570 36,000  Level FlightAware Transoceanic
Fri 11:22:00 47.7215 -148.8763 111° Southeast 484 557 36,000  Level FlightAware Transoceanic
Fri 11:22:40 47.6833 -148.7333 111° Southeast 482 555 36,000  Level Oakland Oceanic (ODAPS)
Fri 11:23:00 47.6740 -148.6902 111° Southeast 484 557 36,000  Level FlightAware Transoceanic
Fri 11:24:00 47.6262 -148.5044 111° Southeast 484 557 36,000  Level FlightAware Transoceanic
Fri 11:25:00 47.5781 -148.3190 111° Southeast 484 557 36,000  Level FlightAware Transoceanic
Fri 11:26:00 47.5297 -148.1339 111° Southeast 484 557 36,000  Level FlightAware Transoceanic
Fri 11:27:00 47.4810 -147.9492 111° Southeast 484 557 36,000  Level FlightAware Transoceanic
Fri 11:28:00 47.4408 -147.8032 111° Southeast 482 555 36,000  Level FlightAware Transoceanic
Fri 11:29:00 47.3914 -147.6182 112° Southeast 482 555 36,000  Level FlightAware Transoceanic
Fri 11:30:00 47.3416 -147.4335 112° Southeast 482 555 36,000  Level FlightAware Transoceanic
Fri 11:31:00 47.2916 -147.2493 112° Southeast 482 555 36,000  Level FlightAware Transoceanic
Fri 11:32:00 47.2413 -147.0653 112° Southeast 482 555 36,000  Level FlightAware Transoceanic
Fri 11:33:00 47.1908 -146.8817 112° Southeast 482 555 36,000  Level FlightAware Transoceanic
Fri 11:34:00 47.1399 -146.6985 112° Southeast 482 555 36,000  Level FlightAware Transoceanic
Fri 11:35:00 47.0887 -146.5156 112° Southeast 482 555 36,000  Level FlightAware Transoceanic
Fri 11:36:00 47.0372 -146.3330 113° Southeast 482 555 36,000  Level FlightAware Transoceanic
Fri 11:36:33 47.0167 -146.2500 113° Southeast 481 554 36,000  Level Oakland Oceanic (ODAPS)
Fri 11:37:00 46.9855 -146.1508 113° Southeast 482 555 36,000  Level FlightAware Transoceanic
Fri 11:38:00 46.9334 -145.9690 113° Southeast 482 555 36,000  Level FlightAware Transoceanic
Fri 11:39:00 46.8811 -145.7875 113° Southeast 482 555 36,000  Level FlightAware Transoceanic
Fri 11:40:00 46.8285 -145.6064 113° Southeast 482 555 36,000  Level FlightAware Transoceanic
Fri 11:41:00 46.7756 -145.4256 113° Southeast 482 555 36,000  Level FlightAware Transoceanic
Fri 11:42:00 46.7046 -145.1768 113° Southeast 481 554 36,000  Level FlightAware Transoceanic
Fri 11:43:00 46.6516 -144.9991 114° Southeast 481 554 36,000  Level FlightAware Transoceanic
Fri 11:44:00 46.5984 -144.8218 114° Southeast 481 554 36,000  Level FlightAware Transoceanic
Fri 11:45:00 46.5448 -144.6448 114° Southeast 481 554 36,000  Level FlightAware Transoceanic
Fri 11:46:00 46.4910 -144.4682 114° Southeast 481 554 36,000  Level FlightAware Transoceanic
Fri 11:47:00 46.4370 -144.2920 114° Southeast 481 554 36,000  Level FlightAware Transoceanic
Fri 11:48:00 46.3826 -144.1160 114° Southeast 481 554 36,000  Level FlightAware Transoceanic
Fri 11:49:00 46.3280 -143.9405 114° Southeast 481 554 36,000  Level FlightAware Transoceanic
Fri 11:50:00 46.2731 -143.7653 114° Southeast 481 554 36,000  Level FlightAware Transoceanic
Fri 11:50:25 46.2833 -143.8167 114° Southeast 483 556 36,000  Level Oakland Oceanic (ODAPS)
Fri 11:51:00 46.2180 -143.5904 115° Southeast 481 554 36,000  Level FlightAware Transoceanic
Fri 11:52:00 46.1626 -143.4159 115° Southeast 481 554 36,000  Level FlightAware Transoceanic
Fri 11:53:00 46.1069 -143.2418 115° Southeast 481 554 36,000  Level FlightAware Transoceanic
Fri 11:54:00 46.0509 -143.0680 115° Southeast 481 554 36,000  Level FlightAware Transoceanic
Fri 11:55:00 45.9947 -142.8945 115° Southeast 481 554 36,000  Level FlightAware Transoceanic
Fri 11:56:00 45.9460 -142.7584 115° Southeast 483 556 36,000  Level FlightAware Transoceanic
Fri 11:57:00 45.8889 -142.5833 115° Southeast 483 556 36,000  Level FlightAware Transoceanic
Fri 11:58:00 45.8314 -142.4086 115° Southeast 483 556 36,000  Level FlightAware Transoceanic
Fri 11:59:00 45.7737 -142.2342 115° Southeast 483 556 36,000  Level FlightAware Transoceanic
Fri 12:00:00 45.7158 -142.0601 116° Southeast 483 556 36,000  Level FlightAware Transoceanic
Fri 12:01:00 45.6576 -141.8865 116° Southeast 483 556 36,000  Level FlightAware Transoceanic
Fri 12:02:00 45.5991 -141.7132 116° Southeast 483 556 36,000  Level FlightAware Transoceanic
Fri 12:03:00 45.5403 -141.5402 116° Southeast 483 556 36,000  Level FlightAware Transoceanic
Fri 12:04:00 45.4813 -141.3676 116° Southeast 483 556 36,000 1,403 Level FlightAware Transoceanic
Fri 12:04:17 45.5167 -141.4667 116° Southeast 475 547 37,800  Climbing Oakland Oceanic (ODAPS)
Fri 12:05:00 45.4220 -141.1954 116° Southeast 483 556 36,000 -1,049 Descending FlightAware Transoceanic
Fri 12:06:00 45.3625 -141.0235 116° Southeast 483 556 36,000  Level FlightAware Transoceanic
Fri 12:07:00 45.3027 -140.8521 116° Southeast 483 556 36,000  Level FlightAware Transoceanic
Fri 12:08:00 45.2427 -140.6809 117° Southeast 483 556 36,000  Level FlightAware Transoceanic
Fri 12:09:00 45.1824 -140.5101 117° Southeast 483 556 36,000 900 Level FlightAware Transoceanic
Fri 12:10:00 45.1743 -140.4859 117° Southeast 475 547 37,800 900 Climbing FlightAware Transoceanic
Fri 12:11:00 45.1164 -140.3236 117° Southeast 475 547 37,800  Level FlightAware Transoceanic
Fri 12:12:00 45.0583 -140.1616 117° Southeast 475 547 37,800  Level FlightAware Transoceanic
Fri 12:13:00 45.0000 -140.0000 109° East 475 547 37,800 160 Level FlightAware Transoceanic
Fri 12:13:15 45.0000 -140.0000 109° East 472 543 38,000  Climbing Oakland Oceanic (ODAPS)
Fri 12:14:00 44.9567 -139.8224 109° East 475 547 37,800 -114 Descending FlightAware Transoceanic
Fri 12:15:00 44.9130 -139.6450 109° East 475 547 37,800  Level FlightAware Transoceanic
Fri 12:16:00 44.8691 -139.4679 109° East 475 547 37,800  Level FlightAware Transoceanic
Fri 12:17:00 44.8250 -139.2910 109° East 475 547 37,800  Level FlightAware Transoceanic
Fri 12:18:00 44.7805 -139.1145 110° East 475 547 37,800 100 Level FlightAware Transoceanic
Fri 12:19:00 44.7403 -138.9558 110° East 472 543 38,000 136 Climbing FlightAware Transoceanic
Fri 12:19:28 44.8000 -139.1667 110° East 475 547 38,000  Level Oakland Oceanic (ODAPS)
Fri 12:20:00 44.6961 -138.7827 110° East 472 543 38,000  Level FlightAware Transoceanic
Fri 12:21:00 44.6516 -138.6098 110° East 472 543 38,000  Level FlightAware Transoceanic
Fri 12:22:00 44.6069 -138.4372 110° East 472 543 38,000  Level FlightAware Transoceanic
Fri 12:23:00 44.5619 -138.2649 110° East 472 543 38,000  Level FlightAware Transoceanic
Fri 12:24:00 44.5167 -138.0929 110° East 472 543 38,000  Level FlightAware Transoceanic
Fri 12:25:00 44.4853 -137.9533 110° East 475 547 38,000  Level FlightAware Transoceanic
Fri 12:26:00 44.4393 -137.7811 111° Southeast 475 547 38,000  Level FlightAware Transoceanic
Fri 12:27:00 44.3930 -137.6091 111° Southeast 475 547 38,000  Level FlightAware Transoceanic
Fri 12:28:00 44.3465 -137.4374 111° Southeast 475 547 38,000  Level FlightAware Transoceanic
Fri 12:29:00 44.2997 -137.2660 111° Southeast 475 547 38,000  Level FlightAware Transoceanic
Fri 12:30:00 44.2527 -137.0948 111° Southeast 475 547 38,000  Level FlightAware Transoceanic
Fri 12:31:00 44.2054 -136.9239 111° Southeast 475 547 38,000  Level FlightAware Transoceanic
Fri 12:32:00 44.1579 -136.7533 111° Southeast 475 547 38,000  Level FlightAware Transoceanic
Fri 12:32:02 44.1667 -136.8167 111° Southeast 483 556 38,000  Level Oakland Oceanic (ODAPS)
Fri 12:33:00 44.1101 -136.5830 111° Southeast 475 547 38,000  Level FlightAware Transoceanic
Fri 12:34:00 44.0620 -136.4129 112° Southeast 475 547 38,000  Level FlightAware Transoceanic
Fri 12:35:00 44.0137 -136.2431 112° Southeast 475 547 38,000  Level FlightAware Transoceanic
Fri 12:36:00 43.9652 -136.0736 112° Southeast 475 547 38,000  Level FlightAware Transoceanic
Fri 12:37:00 43.9164 -135.9044 112° Southeast 475 547 38,000  Level FlightAware Transoceanic
Fri 12:38:00 43.8679 -135.7636 112° Southeast 483 556 38,000  Level FlightAware Transoceanic
Fri 12:39:00 43.8172 -135.5891 112° Southeast 483 556 38,000  Level FlightAware Transoceanic
Fri 12:40:00 43.7662 -135.4149 112° Southeast 483 556 38,000  Level FlightAware Transoceanic
Fri 12:41:00 43.7149 -135.2410 112° Southeast 483 556 38,000  Level FlightAware Transoceanic
Fri 12:42:00 43.6634 -135.0674 112° Southeast 483 556 38,000  Level FlightAware Transoceanic
Fri 12:43:00 43.6116 -134.8941 112° Southeast 483 556 38,000  Level FlightAware Transoceanic
Fri 12:44:00 43.5596 -134.7211 113° Southeast 483 556 38,000  Level FlightAware Transoceanic
Fri 12:45:00 43.5073 -134.5484 113° Southeast 483 556 38,000  Level FlightAware Transoceanic
Fri 12:45:53 43.4667 -134.4167 113° Southeast 489 563 38,000  Level Oakland Oceanic (ODAPS)
Fri 12:46:00 43.4547 -134.3760 113° Southeast 483 556 38,000  Level FlightAware Transoceanic
Fri 12:47:00 43.4019 -134.2039 113° Southeast 483 556 38,000  Level FlightAware Transoceanic
Fri 12:48:00 43.3488 -134.0322 113° Southeast 483 556 38,000  Level FlightAware Transoceanic
Fri 12:49:00 43.2955 -133.8607 113° Southeast 483 556 38,000  Level FlightAware Transoceanic
Fri 12:50:00 43.2419 -133.6895 113° Southeast 483 556 38,000  Level FlightAware Transoceanic
Fri 12:51:00 43.1880 -133.5186 113° Southeast 483 556 38,000  Level FlightAware Transoceanic
Fri 12:52:00 43.1434 -133.3789 114° Southeast 489 563 38,000  Level FlightAware Transoceanic
Fri 12:53:00 43.0886 -133.2070 114° Southeast 489 563 38,000  Level FlightAware Transoceanic
Fri 12:54:00 43.0336 -133.0355 114° Southeast 489 563 38,000  Level FlightAware Transoceanic
Fri 12:55:00 42.9783 -132.8642 114° Southeast 489 563 38,000  Level FlightAware Transoceanic
Fri 12:56:00 42.9227 -132.6932 114° Southeast 489 563 38,000  Level FlightAware Transoceanic
Fri 12:57:00 42.8669 -132.5226 114° Southeast 489 563 38,000  Level FlightAware Transoceanic
Fri 12:58:00 42.8109 -132.3522 114° Southeast 489 563 38,000  Level FlightAware Transoceanic
Fri 12:59:00 42.7546 -132.1822 114° Southeast 489 563 38,000  Level FlightAware Transoceanic
Fri 12:59:46 42.7333 -132.1000 115° Southeast 486 559 38,000  Level Oakland Oceanic (ODAPS)
Fri 13:00:00 42.6980 -132.0125 114° Southeast 489 563 38,000  Level FlightAware Transoceanic
Fri 13:01:00 42.6412 -131.8431 115° Southeast 489 563 38,000  Level FlightAware Transoceanic
Fri 13:02:00 42.5841 -131.6740 115° Southeast 489 563 38,000  Level FlightAware Transoceanic
Fri 13:03:00 42.5268 -131.5052 115° Southeast 489 563 38,000  Level FlightAware Transoceanic
Fri 13:04:00 42.4692 -131.3367 115° Southeast 489 563 38,000  Level FlightAware Transoceanic
Fri 13:05:00 42.4114 -131.1685 115° Southeast 489 563 38,000  Level FlightAware Transoceanic
Fri 13:06:00 42.3715 -131.0439 115° Southeast 486 559 38,000  Level FlightAware Transoceanic
Fri 13:07:00 42.3102 -130.8690 115° Southeast 486 559 38,000  Level FlightAware Transoceanic
Fri 13:08:00 42.2487 -130.6945 116° Southeast 486 559 38,000  Level FlightAware Transoceanic
Fri 13:09:00 42.1869 -130.5204 116° Southeast 486 559 38,000  Level FlightAware Transoceanic
Fri 13:10:00 42.1249 -130.3466 116° Southeast 486 559 38,000  Level FlightAware Transoceanic
Fri 13:11:00 42.0626 -130.1731 116° Southeast 486 559 38,000  Level FlightAware Transoceanic
Fri 13:12:00 42.0000 -130.0000 120° Southeast 486 559 38,000  Level FlightAware Transoceanic
Fri 13:12:37 42.0000 -130.0000 120° Southeast 485 558 38,000  Level Oakland Oceanic (ODAPS)
Fri 13:13:00 41.9335 -129.8470 120° Southeast 486 559 38,000  Level FlightAware Transoceanic
Fri 13:13:38 41.9333 -129.8333 120° Southeast 487 560 38,000  Level Oakland Oceanic (ODAPS)
Fri 13:14:00 41.8669 -129.6943 120° Southeast 486 559 38,000  Level FlightAware Transoceanic
Fri 13:15:00 41.8000 -129.5419 121° Southeast 486 559 38,000  Level FlightAware Transoceanic
Fri 13:16:00 41.7329 -129.3899 121° Southeast 486 559 38,000  Level FlightAware Transoceanic
Fri 13:17:00 41.6657 -129.2382 121° Southeast 486 559 38,000  Level FlightAware Transoceanic
Fri 13:18:00 41.5982 -129.0868 121° Southeast 485 558 38,000  Level FlightAware Transoceanic
Fri 13:19:00 41.5306 -128.9357 121° Southeast 485 558 38,000  Level FlightAware Transoceanic
Fri 13:20:00 41.5078 -128.8763 121° Southeast 487 560 38,000  Level FlightAware Transoceanic
Fri 13:21:00 41.4361 -128.7180 121° Southeast 487 560 38,000  Level FlightAware Transoceanic
Fri 13:22:00 41.3642 -128.5601 121° Southeast 487 560 38,000  Level FlightAware Transoceanic
Fri 13:23:00 41.2920 -128.4026 121° Southeast 487 560 38,000  Level FlightAware Transoceanic
Fri 13:24:00 41.2197 -128.2453 122° Southeast 487 560 38,000  Level FlightAware Transoceanic
Fri 13:25:00 41.1471 -128.0885 122° Southeast 487 560 38,000  Level FlightAware Transoceanic
Fri 13:26:00 41.0743 -127.9319 122° Southeast 487 560 38,000  Level FlightAware Transoceanic
Fri 13:27:00 41.0014 -127.7757 122° Southeast 487 560 38,000 1,250 Level FlightAware Transoceanic
Fri 13:27:36 40.9667 -127.7167 121° Southeast 492 566 40,000  Climbing Oakland Oceanic (ODAPS)
Fri 13:28:00 40.9282 -127.6199 122° Southeast 487 560 38,000 -1,429 Descending FlightAware Transoceanic
Fri 13:29:00 40.8548 -127.4644 122° Southeast 487 560 38,000  Level FlightAware Transoceanic
Fri 13:30:00 40.7812 -127.3093 122° Southeast 487 560 38,000 1,121 Level FlightAware Transoceanic
Fri 13:30:47 40.7353 -127.2275 118° Southeast 487 560 40,000  Climbing Oakland Center
Fri 13:31:00 40.7074 -127.1545 122° Southeast 487 560 38,000  Descending FlightAware Transoceanic
Fri 13:31:49 40.6642 -127.0764 122° Southeast 487 560 40,000  Climbing Oakland Center
Fri 13:32:00 40.6333 -127.0000 118° Southeast 487 560 38,000  Descending FlightAware Transoceanic
Fri 13:32:50 40.5939 -126.9211 121° Southeast 491 565 40,000 2,000 Climbing Oakland Center
Fri 13:33:00 40.5698 -126.8410 118° Southeast 492 566 40,000  Level FlightAware Transoceanic
Fri 13:33:52 40.5103 -126.7361 121° Southeast 493 567 40,000  Level Oakland Center
Fri 13:34:00 40.5060 -126.6823 118° Southeast 492 566 40,000  Level FlightAware Transoceanic
Fri 13:34:54 40.4256 -126.5958 128° Southeast 488 562 40,000  Level Oakland Center
Fri 13:35:00 40.4421 -126.5239 118° Southeast 492 566 40,000  Level FlightAware Transoceanic
Fri 13:36:00 40.3778 -126.3658 118° Southeast 492 566 40,000  Level FlightAware Transoceanic
Fri 13:41:03 39.9090 -125.7380 128° Southeast 40,000  Level FlightAware ADS-B
Fri 13:42:07 39.8120 -125.5790 128° Southeast 489 563 40,000  Level FlightAware ADS-B
Fri 13:42:41 39.7650 -125.5020 128° Southeast 490 564 40,000  Level FlightAware ADS-B
Fri 13:43:21 39.7100 -125.4130 129° Southeast 490 564 40,000  Level FlightAware ADS-B
Fri 13:44:01 39.6540 -125.3210 128° Southeast 490 564 40,000  Level FlightAware ADS-B
Fri 13:44:26 39.6210 -125.2680 129° Southeast 490 564 40,000  Level FlightAware ADS-B
Fri 13:45:01 39.5660 -125.1790 129° Southeast 490 564 40,000  Level FlightAware ADS-B
Fri 13:45:36 39.5160 -125.0980 129° Southeast 490 564 40,000  Level FlightAware ADS-B
Fri 13:46:11 39.4670 -125.0200 129° Southeast 490 564 40,000  Level FlightAware ADS-B
Fri 13:46:51 39.4120 -124.9320 129° Southeast 490 564 40,000  Level FlightAware ADS-B
Fri 13:47:26 39.3630 -124.8540 129° Southeast 490 564 40,000  Level FlightAware ADS-B
Fri 13:48:06 39.3030 -124.7580 129° Southeast 489 563 40,000  Level FlightAware ADS-B
Fri 13:48:44 39.2570 -124.6850 129° Southeast 489 563 40,000  Level FlightAware ADS-B
Fri 13:49:18 39.2020 -124.5970 129° Southeast 488 562 40,000 -250 Level FlightAware ADS-B
Fri 13:49:56 39.1480 -124.5110 129° Southeast 485 558 39,700 -833 Descending FlightAware ADS-B
Fri 13:50:30 39.0980 -124.4340 130° Southeast 486 559 39,000 -1,099 Descending FlightAware ADS-B
Fri 13:51:07 39.0450 -124.3500 129° Southeast 486 559 38,400 -1,164 Descending FlightAware ADS-B
Fri 13:51:37 39.0070 -124.2910 130° Southeast 488 562 37,700 -1,652 Descending FlightAware ADS-B
Fri 13:52:16 38.9530 -124.1880 124° Southeast 487 560 36,500 -1,957 Descending FlightAware ADS-B
Fri 13:52:23 38.9470 -124.1720 116° Southeast 489 563 36,200 -3,000 Descending FlightAware ADS-B
Fri 13:52:58 38.9290 -124.0730 103° East 498 573 34,400 -2,548 Descending FlightAware ADS-B
Fri 13:53:36 38.9150 -123.9630 99° East 490 564 33,100 -1,215 Descending FlightAware ADS-B
Fri 13:54:17 38.9010 -123.8540 99° East 484 557 32,800 -1,870 Descending FlightAware ADS-B
Fri 13:54:53 38.8860 -123.7460 100° East 470 541 30,700 -2,955 Descending FlightAware ADS-B
Fri 13:55:24 38.8740 -123.6590 100° East 468 539 29,500 -2,118 Descending FlightAware ADS-B
Fri 13:56:01 38.8610 -123.5610 100° East 461 531 28,300 -1,859 Descending FlightAware ADS-B
Fri 13:56:35 38.8490 -123.4670 99° East 450 518 27,300 -1,543 Descending FlightAware ADS-B
Fri 13:57:11 38.8370 -123.3740 99° East 443 510 26,500 -1,292 Descending FlightAware ADS-B
Fri 13:57:40 38.8160 -123.3050 111° Southeast 431 496 25,900 -1,102 Descending FlightAware ADS-B
Fri 13:58:00 38.7910 -123.2660 129° Southeast 421 484 25,600 -1,053 Descending FlightAware ADS-B
Fri 13:58:37 38.7310 -123.2220 150° Southeast 407 468 24,900 -971 Descending FlightAware ADS-B
Fri 13:59:08 38.6760 -123.1920 157° South 400 460 24,500 -783 Descending FlightAware ADS-B
Fri 13:59:46 38.6120 -123.1580 157° South 396 456 24,000 -1,054 Descending FlightAware ADS-B
Fri 14:00:22 38.5510 -123.1250 157° South 401 461 23,200 -1,588 Descending FlightAware ADS-B
Fri 14:00:54 38.4960 -123.0950 157° South 396 456 22,200 -1,765 Descending FlightAware ADS-B
Fri 14:01:30 38.4380 -123.0620 156° South 391 450 21,200 -1,765 Descending FlightAware ADS-B
Fri 14:02:02 38.3830 -123.0320 157° South 385 443 20,200 -1,800 Descending FlightAware ADS-B
Fri 14:02:40 38.3210 -122.9990 157° South 379 436 19,100 -1,750 Descending FlightAware ADS-B
Fri 14:03:14 38.2670 -122.9690 156° South 374 430 18,100 -1,853 Descending FlightAware ADS-B
Fri 14:03:48 38.2130 -122.9400 157° South 369 425 17,000 -1,886 Descending FlightAware ADS-B
Fri 14:04:24 38.1580 -122.9100 157° South 349 402 15,900 -1,750 Descending FlightAware ADS-B
Fri 14:05:00 38.1060 -122.8820 157° South 344 396 14,900 -1,714 Descending FlightAware ADS-B
Fri 14:05:34 38.0590 -122.8460 149° Southeast 343 395 13,900 -1,833 Descending FlightAware ADS-B
Fri 14:06:12 38.0130 -122.7960 139° Southeast 345 397 12,700 -1,800 Descending FlightAware ADS-B
Fri 14:06:44 37.9750 -122.7550 140° Southeast 339 390 11,800 -1,500 Descending FlightAware ADS-B
Fri 14:07:20 37.9330 -122.7090 139° Southeast 334 384 11,000 -794 Descending FlightAware ADS-B
Fri 14:07:52 37.8950 -122.6680 140° Southeast 333 383 10,900  Descending FlightAware ADS-B
Fri 14:08:30 37.8500 -122.6200 140° Southeast 332 382 11,000 100 Climbing FlightAware ADS-B
Fri 14:08:52 37.8235 -122.5920 140° Southeast 331 381 11,000  Level FlightAware ADS-B
Fri 14:09:39 37.7718 -122.5370 140° Southeast 331 381 11,000 -73 Level FlightAware ADS-B
Fri 14:10:14 37.7370 -122.4990 139° Southeast 280 322 10,900  Descending FlightAware ADS-B
Fri 14:10:29 37.7217 -122.4830 140° Southeast 287 330 11,000 130 Climbing FlightAware ADS-B
Fri 14:11:00 37.6917 -122.4510 140° Southeast 276 318 11,000  Level FlightAware ADS-B
Fri 14:11:30 37.6617 -122.4190 140° Southeast 277 319 11,000  Level FlightAware ADS-B
Fri 14:12:02 37.6310 -122.3860 140° Southeast 277 319 11,000 -240 Level FlightAware ADS-B
Fri 14:12:20 37.6122 -122.3710 148° Southeast 272 313 10,800 -808 Descending FlightAware ADS-B
Fri 14:12:54 37.5746 -122.3460 152° Southeast 262 302 10,300 -778 Descending FlightAware ADS-B
Fri 14:13:14 37.5533 -122.3310 151° Southeast 252 290 10,100 -833 Descending FlightAware ADS-B
Fri 14:13:30 37.5375 -122.3210 153° Southeast 248 285 9,800 -1,355 Descending FlightAware ADS-B
Fri 14:13:45 37.5217 -122.3100 151° Southeast 249 287 9,400 -1,548 Descending FlightAware ADS-B
Fri 14:14:01 37.5053 -122.2990 152° Southeast 251 289 9,000 -882 Descending FlightAware ADS-B
Fri 14:14:19 37.4874 -122.2870 152° Southeast 248 285 8,900 -727 Descending FlightAware ADS-B
Fri 14:14:34 37.4717 -122.2770 153° Southeast 245 282 8,600 -1,400 Descending FlightAware ADS-B
Fri 14:14:49 37.4566 -122.2670 152° Southeast 246 283 8,200 -1,241 Descending FlightAware ADS-B
Fri 14:15:03 37.4432 -122.2580 152° Southeast 244 281 8,000 -1,200 Descending FlightAware ADS-B
Fri 14:15:09 37.4380 -122.2530 143° Southeast 244 281 7,800 -2,400 Descending FlightAware ADS-B
Fri 14:15:13 37.4349 -122.2490 134° Southeast 244 281 7,600 -2,571 Descending FlightAware ADS-B
Fri 14:15:16 37.4326 -122.2450 126° Southeast 245 282 7,500 -2,000 Descending FlightAware ADS-B
Fri 14:15:19 37.4305 -122.2410 123° Southeast 245 282 7,400 -2,667 Descending FlightAware ADS-B
Fri 14:15:25 37.4281 -122.2330 111° Southeast 245 282 7,100 -2,308 Descending FlightAware ADS-B
Fri 14:15:32 37.4258 -122.2240 108° East 247 284 6,900 -2,087 Descending FlightAware ADS-B
Fri 14:15:48 37.4213 -122.2020 104° East 258 297 6,300 -1,742 Descending FlightAware ADS-B
Fri 14:16:03 37.4164 -122.1790 105° East 257 296 6,000 -581 Descending FlightAware ADS-B
Fri 14:16:19 37.4117 -122.1570 105° East 249 287 6,000  Level FlightAware ADS-B
Fri 14:16:32 37.4078 -122.1400 106° East 238 274 6,000  Level FlightAware ADS-B
Fri 14:16:37 37.4063 -122.1320 103° East 231 266 6,000  Level FlightAware ADS-B
Fri 14:16:40 37.4057 -122.1280 101° East 228 262 6,000  Level FlightAware ADS-B
Fri 14:16:45 37.4050 -122.1220 98° East 222 255 6,000  Level FlightAware ADS-B
Fri 14:16:51 37.4047 -122.1150 93° East 216 249 6,000  Level FlightAware ADS-B
Fri 14:16:56 37.4048 -122.1080 89° East 209 241 6,000  Level FlightAware ADS-B
Fri 14:17:00 37.4052 -122.1030 84° East 205 236 6,000  Level FlightAware ADS-B
Fri 14:17:05 37.4058 -122.0980 81° East 205 236 6,000 -750 Level FlightAware ADS-B
Fri 14:17:08 37.4066 -122.0950 71° East 203 234 5,900 -1,000 Descending FlightAware ADS-B
Fri 14:17:17 37.4108 -122.0850 62° Northeast 195 224 5,800 -750 Descending FlightAware ADS-B
Fri 14:17:24 37.4150 -122.0800 43° Northeast 191 220 5,700 -1,200 Descending FlightAware ADS-B
Fri 14:17:27 37.4171 -122.0780 37° Northeast 190 219 5,600 -1,714 Descending FlightAware ADS-B
Fri 14:17:31 37.4203 -122.0760 26° Northeast 190 219 5,500 -1,440 Descending FlightAware ADS-B
Fri 14:17:52 37.4370 -122.0650 28° Northeast 192 221 5,000 -1,385 Descending FlightAware ADS-B
Fri 14:17:57 37.4406 -122.0640 12° North 191 220 4,900 -1,500 Descending FlightAware ADS-B
Fri 14:18:00 37.4434 -122.0630 16° North 190 219 4,800 -1,000 Descending FlightAware ADS-B
Fri 14:18:03 37.4460 -122.0630 360° North 188 216 4,800 -857 Level FlightAware ADS-B
Fri 14:18:07 37.4495 -122.0630 360° North 183 211 4,700 -1,500 Descending FlightAware ADS-B
Fri 14:18:11 37.4526 -122.0640 346° North 180 207 4,600 -857 Descending FlightAware ADS-B
Fri 14:18:14 37.4555 -122.0660 331° Northwest 176 203 4,600 -857 Level FlightAware ADS-B
Fri 14:18:18 37.4583 -122.0680 330° Northwest 174 200 4,500 -1,385 Descending FlightAware ADS-B
Fri 14:18:27 37.4640 -122.0720 331° Northwest 172 198 4,300 -1,250 Descending FlightAware ADS-B
Fri 14:18:42 37.4741 -122.0810 325° Northwest 174 200 4,000 -621 Descending FlightAware ADS-B
Fri 14:18:56 37.4832 -122.0890 325° Northwest 173 199 4,000  Level FlightAware ADS-B
Fri 14:19:12 37.4940 -122.0980 327° Northwest 174 200 4,000  Level FlightAware ADS-B
Fri 14:19:26 37.5030 -122.1060 325° Northwest 173 199 4,000 -300 Level FlightAware ADS-B
Fri 14:19:32 37.5070 -122.1100 322° Northwest 173 199 3,900 -1,091 Descending FlightAware ADS-B
Fri 14:19:37 37.5094 -122.1130 315° West 173 199 3,800 -1,500 Descending FlightAware ADS-B
Fri 14:19:40 37.5112 -122.1160 307° West 173 199 3,700 -1,333 Descending FlightAware ADS-B
Fri 14:20:04 37.5204 -122.1370 299° West 177 204 3,200 -1,111 Descending FlightAware ADS-B
Fri 14:20:07 37.5217 -122.1400 299° West 174 200 3,200 -667 Level FlightAware ADS-B
Fri 14:20:22 37.5273 -122.1530 299° West 166 191 3,000 -800 Descending FlightAware ADS-B
Fri 14:20:37 37.5327 -122.1650 300° West 160 184 2,800 -774 Descending FlightAware ADS-B
Fri 14:20:53 37.5382 -122.1780 298° West 163 188 2,600 -923 Descending FlightAware ADS-B
Fri 14:21:03 37.5419 -122.1870 297° West 161 185 2,400 -923 Descending FlightAware ADS-B
Fri 14:21:19 37.5471 -122.1990 299° West 155 178 2,200 -400 Descending FlightAware ADS-B
Fri 14:21:33 37.5519 -122.2110 297° West 155 178 2,200 -200 Level FlightAware ADS-B
Fri 14:21:49 37.5572 -122.2230 299° West 157 181 2,100 -387 Descending FlightAware ADS-B
Fri 14:22:04 37.5624 -122.2360 297° West 156 180 2,000 -581 Descending FlightAware ADS-B
Fri 14:22:20 37.5677 -122.2480 299° West 156 180 1,800 -581 Descending FlightAware ADS-B
Fri 14:22:35 37.5728 -122.2600 298° West 155 178 1,700 -429 Descending FlightAware ADS-B
Fri 14:22:48 37.5770 -122.2700 298° West 148 170 1,600 -621 Descending FlightAware ADS-B
Fri 14:23:04 37.5819 -122.2820 297° West 135 155 1,400 -774 Descending FlightAware ADS-B
Fri 14:23:19 37.5864 -122.2930 297° West 134 154 1,200 -727 Descending FlightAware ADS-B
Fri 14:23:37 37.5916 -122.3050 299° West 131 151 1,000 -720 Descending FlightAware ADS-B
Fri 14:24:09 37.6005 -122.3260 298° West 129 148 600 -750 Descending FlightAware ADS-B
Fri 14:24:25 37.6048 -122.3360 298° West 129 148 400 -692 Descending FlightAware ADS-B
Fri 14:24:35 37.6078 -122.3430 298° West 127 146 300 -692 Descending FlightAware ADS-B
Fri 14:24:51 37.6121 -122.3540 296° West 130 150 100 -750 Descending FlightAware ADS-B

Login

Don't have an account? Register now (free) for customized features, flight alerts, and more!